Time;durP1;ratioP1;P1;durP2;ratioP2;P2;SDS_P1;SDS_P2;PMS_P1;PMS_P2;Temp;Humidity;BMP_temperature;BMP_pressure;BME280_temperature;BME280_humidity;BME280_pressure;Samples;Min_cycle;Max_cycle;Signal;HPM_P1;HPM_P2
2023/01/09 00:00:34;;;;;;;3.80;2.50;;;6.10;90.50;;;;;;5020470;28;20053;-42
2023/01/09 00:03:01;;;;;;;3.30;2.30;;;6.10;90.30;;;;;;5013733;28;20052;-43
2023/01/09 00:05:28;;;;;;;5.03;3.15;;;6.10;90.30;;;;;;5018479;28;20025;-43
2023/01/09 00:07:54;;;;;;;5.40;2.63;;;6.10;90.30;;;;;;5036787;28;20371;-44
2023/01/09 00:10:23;;;;;;;5.47;2.90;;;6.00;90.40;;;;;;5033280;28;20120;-42
2023/01/09 00:12:50;;;;;;;5.53;2.97;;;5.90;90.50;;;;;;5031022;28;20033;-44
2023/01/09 00:15:17;;;;;;;6.50;2.83;;;5.90;90.50;;;;;;5029330;28;20045;-46
2023/01/09 00:17:51;;;;;;;5.40;2.90;;;5.90;90.60;;;;;;5032506;28;20036;-43
2023/01/09 00:20:25;;;;;;;6.47;2.80;;;5.90;90.60;;;;;;5021926;28;20030;-44
2023/01/09 00:22:51;;;;;;;4.32;2.80;;;5.90;90.60;;;;;;5014198;28;20034;-45
2023/01/09 00:25:18;;;;;;;6.07;2.80;;;6.00;90.60;;;;;;5013894;28;20060;-44
2023/01/09 00:27:45;;;;;;;4.10;2.80;;;5.90;90.60;;;;;;5030986;28;20041;-43
2023/01/09 00:30:12;;;;;;;4.15;2.65;;;6.00;90.70;;;;;;5031516;28;20021;-44
2023/01/09 00:32:42;;;;;;;6.30;3.20;;;6.00;90.90;;;;;;5036396;28;20152;-46
2023/01/09 00:35:14;;;;;;;4.50;2.50;;;6.10;90.80;;;;;;5027699;28;20030;-48
2023/01/09 00:37:40;;;;;;;4.53;2.85;;;6.10;90.70;;;;;;5032922;28;20041;-43
2023/01/09 00:40:16;;;;;;;4.22;2.42;;;6.10;90.70;;;;;;5029015;28;20033;-44
2023/01/09 00:42:50;;;;;;;4.90;2.50;;;6.10;90.70;;;;;;5013141;28;20470;-45
2023/01/09 00:45:27;;;;;;;5.97;2.40;;;6.20;90.60;;;;;;5012375;28;20507;-45
2023/01/09 00:48:08;;;;;;;5.10;2.63;;;6.10;90.70;;;;;;5021160;28;20155;-44
2023/01/09 00:50:36;;;;;;;5.10;2.40;;;6.20;90.60;;;;;;5019375;28;20029;-47
2023/01/09 00:53:14;;;;;;;4.25;2.60;;;6.20;90.60;;;;;;4996122;28;20038;-46
2023/01/09 00:55:41;;;;;;;3.75;2.28;;;6.20;90.60;;;;;;5021156;28;20037;-44
2023/01/09 00:58:11;;;;;;;2.92;1.95;;;6.30;90.60;;;;;;5033070;28;20025;-42
2023/01/09 01:00:37;;;;;;;5.25;2.40;;;6.30;90.60;;;;;;5014492;28;20410;-44
2023/01/09 01:03:03;;;;;;;4.40;2.42;;;6.40;90.50;;;;;;5011865;28;20034;-44
2023/01/09 01:08:18;;;;;;;3.70;1.95;;;6.40;90.30;;;;;;5026459;28;20509;-46
2023/01/09 01:10:45;;;;;;;4.53;1.90;;;6.40;90.30;;;;;;5011917;28;20022;-44
2023/01/09 01:13:12;;;;;;;9.43;3.35;;;6.30;90.50;;;;;;5019344;28;20395;-45
2023/01/09 01:15:40;;;;;;;5.38;2.47;;;6.40;90.50;;;;;;5018071;28;20033;-42
2023/01/09 01:18:09;;;;;;;4.57;2.40;;;6.40;90.40;;;;;;4995985;28;20469;-43
2023/01/09 01:20:42;;;;;;;3.33;2.10;;;6.40;90.30;;;;;;5012805;28;20030;-44
2023/01/09 01:23:09;;;;;;;4.72;2.75;;;6.40;90.20;;;;;;5004993;28;20489;-45
2023/01/09 01:25:38;;;;;;;5.57;2.53;;;6.50;90.20;;;;;;5017137;28;20443;-44
2023/01/09 01:28:06;;;;;;;3.95;2.10;;;6.50;90.10;;;;;;5018930;28;20014;-47
2023/01/09 01:30:39;;;;;;;4.82;2.13;;;6.50;90.20;;;;;;5015851;28;20041;-43
2023/01/09 01:33:06;;;;;;;7.32;2.28;;;6.50;90.20;;;;;;5022446;28;20364;-45
2023/01/09 01:35:33;;;;;;;4.00;2.13;;;6.50;90.30;;;;;;5014987;28;20133;-47
2023/01/09 01:38:00;;;;;;;4.18;2.58;;;6.50;90.40;;;;;;5032595;28;20107;-43
2023/01/09 01:40:28;;;;;;;3.53;2.10;;;6.50;90.70;;;;;;5013874;28;20113;-44
2023/01/09 01:42:55;;;;;;;4.70;2.30;;;6.50;90.80;;;;;;5021290;28;20065;-59
2023/01/09 01:45:27;;;;;;;5.85;2.88;;;6.50;90.90;;;;;;5039937;28;20370;-55
2023/01/09 01:48:09;;;;;;;5.43;2.33;;;6.50;91.10;;;;;;5017071;28;20018;-57
2023/01/09 01:50:59;;;;;;;5.97;2.65;;;6.50;91.40;;;;;;5024883;28;20088;-56
2023/01/09 01:53:37;;;;;;;4.55;2.28;;;6.50;91.60;;;;;;5025009;28;20029;-54
2023/01/09 01:56:23;;;;;;;4.22;2.40;;;6.50;91.80;;;;;;5030036;28;20033;-58
2023/01/09 01:59:08;;;;;;;5.57;2.50;;;6.50;92.20;;;;;;5032078;28;20419;-61
2023/01/09 02:01:37;;;;;;;5.50;2.58;;;6.60;92.40;;;;;;5034801;28;20128;-62
2023/01/09 02:04:08;;;;;;;5.25;2.38;;;6.60;92.50;;;;;;5033098;28;20113;-58
2023/01/09 02:06:36;;;;;;;3.33;2.00;;;6.60;92.70;;;;;;5033760;28;20033;-59
2023/01/09 02:09:05;;;;;;;5.82;1.90;;;6.60;92.80;;;;;;5033953;28;20049;-57
2023/01/09 02:11:32;;;;;;;5.97;2.47;;;6.60;93.00;;;;;;5016019;28;20083;-56
2023/01/09 02:13:59;;;;;;;5.30;2.30;;;6.60;93.10;;;;;;5015083;28;20037;-54
2023/01/09 02:17:02;;;;;;;4.45;2.22;;;6.60;93.20;;;;;;5038762;28;20033;-59
2023/01/09 02:19:49;;;;;;;3.97;2.40;;;6.60;93.30;;;;;;5034217;28;20139;-59
2023/01/09 02:22:36;;;;;;;4.60;2.28;;;6.70;93.50;;;;;;5024615;28;20537;-61
2023/01/09 02:25:38;;;;;;;6.00;2.42;;;6.60;93.40;;;;;;5015650;28;20029;-61
2023/01/09 02:28:38;;;;;;;5.75;3.28;;;6.70;93.60;;;;;;5043379;28;20383;-60
2023/01/09 02:31:35;;;;;;;3.58;2.28;;;6.70;93.70;;;;;;5049297;28;20028;-60
2023/01/09 02:34:29;;;;;;;6.38;2.78;;;6.70;93.70;;;;;;5034119;28;20029;-60
2023/01/09 02:37:27;;;;;;;4.78;2.70;;;6.70;93.80;;;;;;5015610;28;20032;-59
2023/01/09 02:40:45;;;;;;;6.15;2.65;;;6.60;93.90;;;;;;4999968;28;20132;-58
2023/01/09 02:43:14;;;;;;;6.55;3.53;;;6.70;94.00;;;;;;5014900;28;20033;-58
2023/01/09 02:45:41;;;;;;;;;;;6.70;94.10;;;;;;5020404;28;20400;-59
2023/01/09 02:48:10;;;;;;;8.15;4.10;;;6.70;94.10;;;;;;5035763;28;19954;-56
2023/01/09 02:51:15;;;;;;;6.95;3.58;;;6.70;94.10;;;;;;5025912;28;20340;-59
2023/01/09 02:53:57;;;;;;;5.72;3.90;;;6.70;94.20;;;;;;5015426;28;20030;-59
2023/01/09 02:57:18;;;;;;;5.32;3.75;;;6.70;94.20;;;;;;5025943;28;20033;-60
2023/01/09 03:00:02;;;;;;;7.30;4.05;;;6.70;94.20;;;;;;4994090;28;20053;-62
2023/01/09 03:03:10;;;;;;;8.82;3.97;;;6.70;94.20;;;;;;5025023;28;20108;-62
2023/01/09 03:06:07;;;;;;;7.65;4.53;;;6.70;94.30;;;;;;5028797;28;20038;-61
2023/01/09 03:08:48;;;;;;;7.90;4.13;;;6.70;94.30;;;;;;5028870;28;20092;-60
2023/01/09 03:11:20;;;;;;;5.25;4.25;;;6.70;94.30;;;;;;5023625;28;20044;-58
2023/01/09 03:13:54;;;;;;;8.20;5.00;;;6.70;94.30;;;;;;5024053;28;20116;-54
2023/01/09 03:16:30;;;;;;;8.35;5.35;;;6.70;94.30;;;;;;5018048;28;20050;-52
2023/01/09 03:18:58;;;;;;;6.95;4.50;;;6.70;94.30;;;;;;5038941;28;20033;-50
2023/01/09 03:21:25;;;;;;;7.57;5.18;;;6.70;94.30;;;;;;5013509;28;20041;-49
2023/01/09 03:23:58;;;;;;;6.97;5.00;;;6.70;94.30;;;;;;5020250;28;20485;-53
2023/01/09 03:26:25;;;;;;;6.22;4.75;;;6.70;94.30;;;;;;5014370;28;20022;-48
2023/01/09 03:28:52;;;;;;;15.48;7.13;;;6.60;94.30;;;;;;5013858;28;20030;-49
2023/01/09 03:31:19;;;;;;;6.07;3.50;;;6.60;94.30;;;;;;5031297;28;20029;-51
2023/01/09 03:33:46;;;;;;;5.30;3.50;;;6.60;94.40;;;;;;5025445;28;20477;-49
2023/01/09 03:36:14;;;;;;;6.47;3.20;;;6.50;94.30;;;;;;5024878;28;20076;-51
2023/01/09 03:38:44;;;;;;;5.85;2.85;;;6.50;94.30;;;;;;5022248;28;20026;-50
2023/01/09 03:41:11;;;;;;;;;;;6.50;94.30;;;;;;5027880;28;20045;-48
2023/01/09 03:43:38;;;;;;;5.20;3.00;;;6.50;94.30;;;;;;5014409;28;19955;-47
2023/01/09 03:46:05;;;;;;;4.75;2.80;;;6.50;94.30;;;;;;5031578;28;20427;-45
2023/01/09 03:48:32;;;;;;;5.85;2.80;;;6.50;94.30;;;;;;5023399;28;20032;-50
2023/01/09 03:51:00;;;;;;;4.95;2.70;;;6.40;94.30;;;;;;5023465;28;20516;-46
2023/01/09 03:53:28;;;;;;;4.97;2.90;;;6.40;94.20;;;;;;5032721;28;20613;-46
2023/01/09 03:55:56;;;;;;;5.25;2.63;;;6.50;94.30;;;;;;5034029;28;20025;-48
2023/01/09 03:58:23;;;;;;;5.53;2.17;;;6.40;94.20;;;;;;5028466;28;20647;-49
2023/01/09 04:00:49;;;;;;;4.75;2.70;;;6.40;94.30;;;;;;5038389;28;20437;-49
2023/01/09 04:03:18;;;;;;;5.43;2.72;;;6.40;94.20;;;;;;5026473;28;20025;-51
2023/01/09 04:05:47;;;;;;;4.55;2.50;;;6.40;94.10;;;;;;5032305;28;20045;-46
2023/01/09 04:08:16;;;;;;;3.90;2.50;;;6.40;94.10;;;;;;5033345;28;20418;-46
2023/01/09 04:10:44;;;;;;;3.53;1.98;;;6.40;94.10;;;;;;5028720;28;20315;-46
2023/01/09 04:13:13;;;;;;;3.40;1.95;;;6.40;94.10;;;;;;5013760;28;20499;-49
2023/01/09 04:15:40;;;;;;;4.90;1.92;;;6.30;94.10;;;;;;5017294;28;20030;-48
2023/01/09 04:18:07;;;;;;;3.15;1.80;;;6.30;94.10;;;;;;5027203;28;20048;-49
2023/01/09 04:20:34;;;;;;;4.45;2.45;;;6.30;94.10;;;;;;5030355;28;20140;-45
2023/01/09 04:23:01;;;;;;;4.03;2.00;;;6.30;94.00;;;;;;5033623;28;20037;-46
2023/01/09 04:25:28;;;;;;;3.20;1.90;;;6.20;94.00;;;;;;5029756;28;20022;-46
2023/01/09 04:27:54;;;;;;;3.05;2.00;;;6.20;94.00;;;;;;5014297;28;20104;-49
2023/01/09 04:30:21;;;;;;;4.85;1.75;;;6.20;93.90;;;;;;5032706;28;20025;-49
2023/01/09 04:32:48;;;;;;;5.40;1.83;;;6.20;93.90;;;;;;5032699;28;20051;-44
2023/01/09 04:35:15;;;;;;;7.03;1.92;;;6.10;93.90;;;;;;5027786;28;20092;-47
2023/01/09 04:37:41;;;;;;;5.28;1.90;;;6.20;93.90;;;;;;5029899;28;20025;-46
2023/01/09 04:40:10;;;;;;;4.40;2.00;;;6.10;93.90;;;;;;5033432;28;20039;-45
2023/01/09 04:42:38;;;;;;;4.82;1.88;;;6.20;93.90;;;;;;5026003;28;20117;-46
2023/01/09 04:45:06;;;;;;;5.70;2.15;;;6.10;93.70;;;;;;5013781;28;20106;-50
2023/01/09 04:47:33;;;;;;;4.85;1.95;;;6.10;93.70;;;;;;5027569;28;20149;-48
2023/01/09 04:50:00;;;;;;;9.02;2.00;;;6.10;93.80;;;;;;5013909;28;20100;-49
2023/01/09 04:52:30;;;;;;;3.88;1.98;;;6.10;93.80;;;;;;5012656;28;20029;-45
2023/01/09 04:54:57;;;;;;;4.60;2.20;;;6.10;93.70;;;;;;5031193;28;20025;-44
2023/01/09 04:57:24;;;;;;;3.25;1.85;;;6.10;93.70;;;;;;5031777;28;20025;-45
2023/01/09 04:59:50;;;;;;;4.00;2.22;;;6.10;93.70;;;;;;5023666;28;20121;-49
2023/01/09 05:02:17;;;;;;;4.85;3.03;;;6.00;93.60;;;;;;5012322;28;20116;-48
2023/01/09 05:04:44;;;;;;;5.93;2.42;;;6.00;93.70;;;;;;5015928;28;20331;-44
2023/01/09 05:07:10;;;;;;;4.20;2.70;;;6.00;93.70;;;;;;5030025;28;20447;-47
2023/01/09 05:09:37;;;;;;;4.55;2.60;;;6.00;93.70;;;;;;5033149;28;20056;-46
2023/01/09 05:12:04;;;;;;;6.00;2.65;;;5.90;93.60;;;;;;5030598;28;20037;-48
2023/01/09 05:14:31;;;;;;;5.07;2.70;;;6.00;93.70;;;;;;5027459;28;20040;-49
2023/01/09 05:16:58;;;;;;;6.55;2.53;;;5.90;93.70;;;;;;5031189;28;20045;-48
2023/01/09 05:19:25;;;;;;;4.50;2.65;;;5.90;93.70;;;;;;5018868;28;20026;-48
2023/01/09 05:21:51;;;;;;;4.47;2.80;;;5.90;93.70;;;;;;5029662;28;20029;-45
2023/01/09 05:24:18;;;;;;;4.55;3.28;;;5.90;93.70;;;;;;5031620;28;20048;-46
2023/01/09 05:26:45;;;;;;;6.43;3.60;;;5.90;93.70;;;;;;5029404;28;20028;-50
2023/01/09 05:29:12;;;;;;;4.85;3.33;;;5.90;93.70;;;;;;5025105;28;20426;-47
2023/01/09 05:31:43;;;;;;;5.90;3.63;;;5.80;93.60;;;;;;5032171;28;20025;-49
2023/01/09 05:34:09;;;;;;;5.32;3.40;;;5.70;93.60;;;;;;5021295;28;20033;-47
2023/01/09 05:36:36;;;;;;;5.53;3.08;;;5.70;93.50;;;;;;5029260;28;20061;-45
2023/01/09 05:39:04;;;;;;;5.45;3.88;;;5.70;93.60;;;;;;5024933;28;20038;-46
2023/01/09 05:41:31;;;;;;;5.03;3.25;;;5.60;93.60;;;;;;5012675;28;20040;-49
2023/01/09 05:44:00;;;;;;;7.88;3.65;;;5.60;93.60;;;;;;5011893;28;20030;-47
2023/01/09 05:46:27;;;;;;;5.13;3.75;;;5.60;93.60;;;;;;5012727;28;20541;-48
2023/01/09 05:48:54;;;;;;;5.18;3.45;;;5.60;93.60;;;;;;5030886;28;20061;-49
2023/01/09 05:51:20;;;;;;;4.55;3.42;;;5.50;93.60;;;;;;5032468;28;20775;-45
2023/01/09 05:53:47;;;;;;;5.85;4.10;;;5.40;93.60;;;;;;5022294;28;20034;-46
2023/01/09 05:56:14;;;;;;;5.60;4.22;;;5.40;93.60;;;;;;5022449;28;20109;-46
2023/01/09 05:58:41;;;;;;;5.72;4.40;;;5.40;93.60;;;;;;5030767;28;20355;-50
2023/01/09 06:01:08;;;;;;;6.78;5.07;;;5.30;93.60;;;;;;5025896;28;20061;-48
2023/01/09 06:03:37;;;;;;;7.53;4.82;;;5.30;93.60;;;;;;5027658;28;20037;-46
2023/01/09 06:06:03;;;;;;;7.15;4.72;;;5.20;93.60;;;;;;5031758;28;20021;-48
2023/01/09 06:08:29;;;;;;;6.18;4.55;;;5.20;93.60;;;;;;5030768;28;20033;-47
2023/01/09 06:10:56;;;;;;;8.45;4.68;;;5.20;93.60;;;;;;5030680;28;20040;-48
2023/01/09 06:13:23;;;;;;;9.48;5.50;;;5.20;93.60;;;;;;5026996;28;20033;-47
2023/01/09 06:15:50;;;;;;;6.63;4.65;;;5.10;93.60;;;;;;5031516;28;20063;-49
2023/01/09 06:18:20;;;;;;;10.90;5.75;;;5.10;93.60;;;;;;5029296;28;20033;-48
2023/01/09 06:20:47;;;;;;;9.30;5.22;;;5.10;93.60;;;;;;5027235;28;20048;-49
2023/01/09 06:23:13;;;;;;;9.38;5.78;;;5.10;93.70;;;;;;5026262;28;20027;-48
2023/01/09 06:25:41;;;;;;;7.68;5.82;;;5.00;93.70;;;;;;5023187;28;20064;-46
2023/01/09 06:28:08;;;;;;;10.95;6.20;;;5.00;93.80;;;;;;5027652;28;20564;-50
2023/01/09 06:30:34;;;;;;;8.20;6.07;;;5.00;93.80;;;;;;5023202;28;20121;-51
2023/01/09 06:33:01;;;;;;;9.73;6.65;;;5.10;94.00;;;;;;5022686;28;20443;-45
2023/01/09 06:35:27;;;;;;;9.43;6.15;;;5.00;93.90;;;;;;5029865;28;20030;-52
2023/01/09 06:37:53;;;;;;;8.90;6.95;;;5.10;94.00;;;;;;5025818;28;20057;-48
2023/01/09 06:40:20;;;;;;;7.72;6.28;;;5.10;93.90;;;;;;5026731;28;20512;-47
2023/01/09 06:42:48;;;;;;;11.48;7.45;;;5.00;93.90;;;;;;5025587;28;20036;-47
2023/01/09 06:45:16;;;;;;;13.13;7.25;;;5.00;94.00;;;;;;5024842;28;20018;-49
2023/01/09 06:47:42;;;;;;;9.38;6.85;;;5.00;93.80;;;;;;5027381;28;20785;-49
2023/01/09 06:50:10;;;;;;;9.07;6.32;;;4.90;93.70;;;;;;5022202;28;20022;-47
2023/01/09 06:52:37;;;;;;;10.45;6.57;;;4.90;93.70;;;;;;5027657;28;20104;-50
2023/01/09 06:55:05;;;;;;;11.32;7.07;;;4.90;93.70;;;;;;5027858;28;20404;-49
2023/01/09 06:57:32;;;;;;;11.32;7.82;;;4.90;93.70;;;;;;5032625;28;20057;-47
2023/01/09 06:59:57;;;;;;;13.85;7.47;;;4.80;93.70;;;;;;5032708;28;20037;-48
2023/01/09 07:02:24;;;;;;;10.57;7.43;;;4.80;93.70;;;;;;5032693;28;20025;-51
2023/01/09 07:04:50;;;;;;;12.00;8.05;;;4.80;93.70;;;;;;5034077;28;20029;-47
2023/01/09 07:07:17;;;;;;;10.93;8.57;;;4.70;93.70;;;;;;5031678;28;20034;-47
2023/01/09 07:09:46;;;;;;;13.10;8.18;;;4.80;93.80;;;;;;5030177;28;20620;-49
2023/01/09 07:12:14;;;;;;;10.88;7.30;;;4.80;93.80;;;;;;5020771;28;20033;-51
2023/01/09 07:14:41;;;;;;;11.85;7.38;;;4.80;93.80;;;;;;5023407;28;20366;-52
2023/01/09 07:17:11;;;;;;;9.57;6.88;;;4.70;93.80;;;;;;5028435;28;20025;-52
2023/01/09 07:19:37;;;;;;;17.98;9.13;;;4.70;93.80;;;;;;5030372;28;20410;-49
2023/01/09 07:22:07;;;;;;;12.65;7.65;;;4.70;93.90;;;;;;5027691;28;20036;-51
2023/01/09 07:24:34;;;;;;;11.48;7.53;;;4.70;93.90;;;;;;5031462;28;20324;-50
2023/01/09 07:27:01;;;;;;;12.52;8.57;;;4.70;93.90;;;;;;5032651;28;20455;-47
2023/01/09 07:29:29;;;;;;;10.25;7.03;;;4.70;93.90;;;;;;5033164;28;20026;-48
2023/01/09 07:31:56;;;;;;;11.07;8.05;;;4.70;93.90;;;;;;5021104;28;20017;-50
2023/01/09 07:34:23;;;;;;;9.10;6.22;;;4.70;94.00;;;;;;5027404;28;20025;-49
2023/01/09 07:36:50;;;;;;;9.85;7.50;;;4.70;94.00;;;;;;5018622;28;20030;-50
2023/01/09 07:39:17;;;;;;;12.25;8.38;;;4.70;94.00;;;;;;5014607;28;20029;-48
2023/01/09 07:41:43;;;;;;;13.85;8.77;;;4.70;94.00;;;;;;5024041;28;20041;-50
2023/01/09 07:44:15;;;;;;;18.70;8.35;;;4.70;94.10;;;;;;5032408;28;20427;-49
2023/01/09 07:46:42;;;;;;;14.60;8.82;;;4.70;94.10;;;;;;5028943;28;20021;-47
2023/01/09 07:49:11;;;;;;;16.13;9.18;;;4.80;94.20;;;;;;5017145;28;20026;-51
2023/01/09 07:51:41;;;;;;;13.50;7.95;;;4.80;94.20;;;;;;5029926;28;20030;-47
2023/01/09 07:54:08;;;;;;;;;;;4.90;94.20;;;;;;5027303;28;20057;-48
2023/01/09 07:56:38;;;;;;;12.48;8.73;;;4.90;94.30;;;;;;5021322;28;19967;-49
2023/01/09 07:59:05;;;;;;;15.73;9.70;;;5.00;94.30;;;;;;5023222;28;20498;-47
2023/01/09 08:01:35;;;;;;;18.75;10.88;;;5.00;94.30;;;;;;5021836;28;20076;-45
2023/01/09 08:04:01;;;;;;;17.17;10.40;;;5.10;94.30;;;;;;5027013;28;20057;-48
2023/01/09 08:06:30;;;;;;;16.08;10.93;;;5.10;94.30;;;;;;5026161;28;20065;-46
2023/01/09 08:08:58;;;;;;;23.70;11.57;;;5.10;94.30;;;;;;5022643;28;20029;-47
2023/01/09 08:11:25;;;;;;;19.40;11.07;;;5.20;94.40;;;;;;5029219;28;20366;-47
2023/01/09 08:13:51;;;;;;;20.85;12.23;;;5.20;94.40;;;;;;5030236;28;20029;-49
2023/01/09 08:16:18;;;;;;;18.65;13.00;;;5.30;94.40;;;;;;5031931;28;20129;-45
2023/01/09 08:18:45;;;;;;;21.40;13.98;;;5.30;94.40;;;;;;5025991;28;20038;-46
2023/01/09 08:21:10;;;;;;;22.50;15.02;;;5.30;94.40;;;;;;5021316;28;20459;-46
2023/01/09 08:23:36;;;;;;;23.02;12.85;;;5.40;94.40;;;;;;5031149;28;20087;-50
2023/01/09 08:26:04;;;;;;;22.17;12.80;;;5.40;94.40;;;;;;5032317;28;20045;-46
2023/01/09 08:28:31;;;;;;;22.15;13.45;;;5.40;94.50;;;;;;5031058;28;20120;-48
2023/01/09 08:30:58;;;;;;;23.05;14.38;;;5.40;94.40;;;;;;5030549;28;20316;-46
2023/01/09 08:33:27;;;;;;;26.40;15.05;;;5.40;94.40;;;;;;5026363;28;20121;-45
2023/01/09 08:35:55;;;;;;;;;;;5.40;94.40;;;;;;5029168;28;20431;-45
2023/01/09 08:38:25;;;;;;;21.27;15.70;;;5.50;94.50;;;;;;5025241;28;19917;-46
2023/01/09 08:40:51;;;;;;;23.08;13.70;;;5.50;94.40;;;;;;5016931;28;20038;-44
2023/01/09 08:48:50;;;;;;;19.35;13.82;;;5.60;94.40;;;;;;5030898;28;20036;-44
2023/01/09 08:51:18;;;;;;;22.13;12.77;;;5.70;94.40;;;;;;5032411;28;20029;-45
2023/01/09 08:53:45;;;;;;;20.77;13.52;;;5.60;94.30;;;;;;5021181;28;20032;-44
2023/01/09 08:56:13;;;;;;;16.95;12.35;;;5.70;94.30;;;;;;5031646;28;20332;-47
2023/01/09 08:58:40;;;;;;;20.23;12.07;;;5.80;94.20;;;;;;5027633;28;20030;-49
2023/01/09 09:01:07;;;;;;;21.23;11.70;;;5.80;94.10;;;;;;5030872;28;20498;-46
2023/01/09 09:03:38;;;;;;;15.95;11.18;;;5.80;94.00;;;;;;5031216;28;20435;-44
2023/01/09 09:06:06;;;;;;;18.25;11.55;;;5.70;94.00;;;;;;5031407;28;20091;-48
2023/01/09 09:08:32;;;;;;;17.92;11.70;;;5.80;94.00;;;;;;5021727;28;20034;-49
2023/01/09 09:11:00;;;;;;;23.85;12.13;;;5.80;94.00;;;;;;5028566;28;20030;-46
2023/01/09 09:13:27;;;;;;;15.48;11.80;;;5.80;94.00;;;;;;5027142;28;20041;-47
2023/01/09 09:15:53;;;;;;;17.42;11.55;;;5.90;93.90;;;;;;5029617;28;20046;-46
2023/01/09 09:18:21;;;;;;;16.60;10.68;;;5.90;93.90;;;;;;5029869;28;20029;-43
2023/01/09 09:20:48;;;;;;;21.13;12.30;;;5.90;93.90;;;;;;5030787;28;20033;-46
2023/01/09 09:23:15;;;;;;;15.57;10.38;;;5.90;93.90;;;;;;5011453;28;20446;-46
2023/01/09 09:25:42;;;;;;;22.55;12.40;;;5.90;93.90;;;;;;5031950;28;20422;-46
2023/01/09 09:28:09;;;;;;;20.27;10.73;;;6.00;93.80;;;;;;5027493;28;20451;-43
2023/01/09 09:30:41;;;;;;;15.13;11.05;;;6.00;93.60;;;;;;5018967;28;20108;-45
2023/01/09 09:33:08;;;;;;;13.27;10.38;;;6.00;93.60;;;;;;5028164;28;20021;-43
2023/01/09 09:35:35;;;;;;;16.05;10.40;;;6.00;93.50;;;;;;5028656;28;20033;-44
2023/01/09 09:38:04;;;;;;;14.85;8.73;;;6.00;93.40;;;;;;5030770;28;20469;-45
2023/01/09 09:41:06;;;;;;;17.00;8.98;;;6.00;93.30;;;;;;5024468;28;20115;-45
2023/01/09 09:47:05;;;;;;;14.50;8.20;;;6.00;93.20;;;;;;5020052;28;20366;-43
2023/01/09 09:49:39;;;;;;;12.48;8.70;;;6.00;93.20;;;;;;5022671;28;20786;-45
2023/01/09 09:52:35;;;;;;;14.93;8.73;;;6.00;93.00;;;;;;5029842;28;20033;-42
2023/01/09 09:55:13;;;;;;;12.90;8.10;;;6.00;93.00;;;;;;5037273;28;20026;-43
2023/01/09 09:57:41;;;;;;;15.55;8.35;;;6.20;93.10;;;;;;5029053;28;20025;-42
2023/01/09 10:00:14;;;;;;;15.02;8.88;;;6.30;92.80;;;;;;5028335;28;20032;-43
2023/01/09 10:03:01;;;;;;;14.50;7.93;;;6.30;92.90;;;;;;5029878;28;20029;-45
2023/01/09 10:05:33;;;;;;;17.00;9.65;;;6.40;92.90;;;;;;5028859;28;20041;-46
2023/01/09 10:08:23;;;;;;;14.73;8.85;;;6.40;92.60;;;;;;5034258;28;20013;-44
2023/01/09 10:10:52;;;;;;;16.38;8.40;;;6.40;92.60;;;;;;5033477;28;20036;-42
2023/01/09 10:16:47;;;;;;;15.70;8.25;;;6.50;92.40;;;;;;5026759;28;19963;-44
2023/01/09 10:19:34;;;;;;;13.38;7.60;;;6.50;92.30;;;;;;5040723;28;20060;-46
2023/01/09 10:22:27;;;;;;;14.07;8.50;;;6.60;92.30;;;;;;5031363;28;20034;-43
2023/01/09 10:25:17;;;;;;;14.18;9.35;;;6.50;92.20;;;;;;5023362;28;20446;-45
2023/01/09 10:28:21;;;;;;;9.70;7.57;;;6.50;92.10;;;;;;5035301;28;20474;-43
2023/01/09 10:31:11;;;;;;;11.25;8.45;;;6.60;92.10;;;;;;5028707;28;20086;-46
2023/01/09 10:33:56;;;;;;;;;;;6.60;92.20;;;;;;5031317;28;20022;-49
2023/01/09 10:36:55;;;;;;;12.23;7.60;;;6.60;91.90;;;;;;5029233;28;20365;-47
2023/01/09 10:39:44;;;;;;;12.77;8.38;;;6.50;91.70;;;;;;5022243;28;20112;-45
2023/01/09 10:42:30;;;;;;;11.63;8.43;;;6.50;91.70;;;;;;5032730;28;20065;-43
2023/01/09 10:45:04;;;;;;;10.52;6.88;;;6.40;91.90;;;;;;5028324;28;20022;-46
2023/01/09 10:47:34;;;;;;;12.80;6.88;;;6.30;92.10;;;;;;5029181;28;20463;-45
2023/01/09 10:50:18;;;;;;;11.10;7.22;;;6.30;92.10;;;;;;5028453;28;20021;-43
2023/01/09 10:52:45;;;;;;;15.45;7.80;;;6.40;92.30;;;;;;5022462;28;20038;-45
2023/01/09 10:55:39;;;;;;;9.80;7.05;;;6.40;92.40;;;;;;5032484;28;20067;-44
2023/01/09 10:58:20;;;;;;;8.35;5.75;;;6.40;92.50;;;;;;5027355;28;20042;-42
2023/01/09 11:00:49;;;;;;;12.95;6.60;;;6.40;92.50;;;;;;5028779;28;20088;-45
2023/01/09 11:03:22;;;;;;;11.07;6.65;;;6.50;92.70;;;;;;5029095;28;20060;-42
2023/01/09 11:05:59;;;;;;;13.57;6.57;;;6.50;92.70;;;;;;5025029;28;20108;-43
2023/01/09 11:08:41;;;;;;;9.13;6.00;;;6.50;92.60;;;;;;5030572;28;20030;-44
2023/01/09 11:11:09;;;;;;;14.77;6.38;;;6.50;92.60;;;;;;5025432;28;20386;-42
2023/01/09 11:13:45;;;;;;;14.35;6.43;;;6.50;92.50;;;;;;5027653;28;20044;-44
2023/01/09 11:16:22;;;;;;;11.52;6.63;;;6.60;92.60;;;;;;5031409;28;20064;-44
2023/01/09 11:18:59;;;;;;;13.52;7.25;;;6.60;92.60;;;;;;5029894;28;20112;-45
2023/01/09 11:21:44;;;;;;;11.27;6.65;;;6.60;92.50;;;;;;5033771;28;20033;-43
2023/01/09 11:24:31;;;;;;;14.52;7.90;;;6.60;92.50;;;;;;5026068;28;20144;-44
2023/01/09 11:27:22;;;;;;;13.05;8.07;;;6.60;92.50;;;;;;5033163;28;20103;-43
2023/01/09 11:30:09;;;;;;;11.35;7.97;;;6.60;92.40;;;;;;5033234;28;20030;-45
2023/01/09 11:32:36;;;;;;;15.50;7.70;;;6.60;92.50;;;;;;5019332;28;20041;-43
2023/01/09 11:35:14;;;;;;;8.38;7.38;;;6.60;92.60;;;;;;5030892;28;20418;-43
2023/01/09 11:37:41;;;;;;;12.38;8.50;;;6.70;92.60;;;;;;5031656;28;20025;-43
2023/01/09 11:40:18;;;;;;;11.52;7.90;;;6.80;92.60;;;;;;5034144;28;20348;-45
2023/01/09 11:43:20;;;;;;;10.88;7.88;;;6.80;92.50;;;;;;5024294;28;20340;-46
2023/01/09 11:45:57;;;;;;;10.30;7.38;;;6.80;92.40;;;;;;5029143;28;20093;-42
2023/01/09 11:48:58;;;;;;;11.27;8.35;;;6.80;92.20;;;;;;5029195;28;20526;-45
2023/01/09 11:51:28;;;;;;;12.00;7.15;;;6.80;92.20;;;;;;5021992;28;20032;-44
2023/01/09 11:53:58;;;;;;;;;;;6.80;92.20;;;;;;5032354;28;20120;-43
2023/01/09 11:56:26;;;;;;;10.88;6.80;;;6.80;92.10;;;;;;5031523;28;20458;-43
2023/01/09 11:58:54;;;;;;;9.52;7.25;;;6.80;92.20;;;;;;5019390;28;20029;-45
2023/01/09 12:01:47;;;;;;;11.55;6.85;;;6.90;92.30;;;;;;5029369;28;20068;-42
2023/01/09 12:04:22;;;;;;;7.80;6.35;;;6.90;92.20;;;;;;5033548;28;20083;-42
2023/01/09 12:06:56;;;;;;;8.98;5.93;;;6.90;92.20;;;;;;5031478;28;20018;-42
2023/01/09 12:09:53;;;;;;;9.45;5.97;;;6.90;92.00;;;;;;5030611;28;20358;-44
2023/01/09 12:12:58;;;;;;;11.57;5.47;;;6.90;91.90;;;;;;5025948;28;20022;-44
2023/01/09 12:15:45;;;;;;;11.48;6.07;;;7.00;92.00;;;;;;5018061;28;20087;-44
2023/01/09 12:18:31;;;;;;;11.00;5.78;;;7.00;92.00;;;;;;5024937;28;20021;-44
2023/01/09 12:21:21;;;;;;;9.30;5.47;;;7.20;92.00;;;;;;5032781;28;20022;-48
2023/01/09 12:24:19;;;;;;;9.00;6.05;;;7.30;91.70;;;;;;5030142;28;20060;-44
2023/01/09 12:27:13;;;;;;;13.52;5.68;;;7.20;91.60;;;;;;5032380;28;20041;-43
2023/01/09 12:30:01;;;;;;;7.70;5.57;;;7.30;91.50;;;;;;5031017;28;20354;-44
2023/01/09 12:33:01;;;;;;;8.63;5.72;;;7.30;91.60;;;;;;5029906;28;20332;-46
2023/01/09 12:35:49;;;;;;;;;;;7.30;91.70;;;;;;5019623;28;20053;-44
2023/01/09 12:38:24;;;;;;;6.10;5.00;;;7.30;91.80;;;;;;5022052;28;19913;-44
2023/01/09 12:41:31;;;;;;;9.88;5.32;;;7.40;91.70;;;;;;5032532;28;20113;-43
2023/01/09 12:44:43;;;;;;;8.80;5.70;;;7.40;91.80;;;;;;5028639;28;20132;-46
2023/01/09 12:47:33;;;;;;;8.13;5.35;;;7.40;91.50;;;;;;5026497;28;20041;-44
2023/01/09 12:50:20;;;;;;;12.23;6.57;;;7.40;91.70;;;;;;5026329;28;20029;-48
2023/01/09 12:52:55;;;;;;;11.30;5.95;;;7.40;91.60;;;;;;5031835;28;20144;-46
2023/01/09 12:55:24;;;;;;;12.00;6.35;;;7.40;91.80;;;;;;5028747;28;20100;-46
2023/01/09 12:57:59;;;;;;;13.50;8.02;;;7.50;91.80;;;;;;5028500;28;20021;-44
2023/01/09 13:00:31;;;;;;;10.70;5.95;;;7.50;91.70;;;;;;5031733;28;20140;-44
2023/01/09 13:03:39;;;;;;;11.48;5.35;;;7.40;91.80;;;;;;5022221;28;20383;-47
2023/01/09 13:06:11;;;;;;;9.38;5.88;;;7.50;91.90;;;;;;5034861;28;20546;-44
2023/01/09 13:09:20;;;;;;;7.93;5.28;;;7.40;91.50;;;;;;5031131;28;20034;-44
2023/01/09 13:12:00;;;;;;;16.15;6.00;;;7.40;91.70;;;;;;5028942;28;20041;-45
2023/01/09 13:15:16;;;;;;;8.10;6.05;;;7.40;91.60;;;;;;5016489;28;20030;-47
2023/01/09 13:17:47;;;;;;;8.95;5.93;;;7.40;91.70;;;;;;5033668;28;20037;-45
2023/01/09 13:20:42;;;;;;;9.18;5.07;;;7.40;91.80;;;;;;5014943;28;20116;-47
2023/01/09 13:23:33;;;;;;;10.45;6.35;;;7.40;91.80;;;;;;5030343;28;20037;-43
2023/01/09 13:26:04;;;;;;;11.82;5.65;;;7.40;91.80;;;;;;5031510;28;20067;-45
2023/01/09 13:28:48;;;;;;;12.25;7.07;;;7.40;91.70;;;;;;5028476;28;20117;-47
2023/01/09 13:31:35;;;;;;;8.65;5.85;;;7.40;91.70;;;;;;5019792;28;20025;-45
2023/01/09 13:34:02;;;;;;;9.23;5.90;;;7.40;91.70;;;;;;5028058;28;20036;-47
2023/01/09 13:36:51;;;;;;;8.52;5.93;;;7.40;91.80;;;;;;5031127;28;20040;-44
2023/01/09 13:39:34;;;;;;;10.23;5.70;;;7.40;91.90;;;;;;5031554;28;20074;-45
2023/01/09 13:45:21;;;;;;;14.10;7.45;;;7.40;91.90;;;;;;5035840;28;20217;-46